Adams Field
KLIT : now visible

Airfield :











YOU CAN JOIN US ON...

 
LOGIN :

Register | Disclaimer

   EN    FR    IT 

 









Legend :    VFR   Marginal VFR   IFR   Intensive IFR   Very Intensive IFR
Visi :
Ceiling :
>= 8 km
>= 3000ft
5 to 8 km
1000 to 3000 ft
1500m to 5 km
500 to 1000 ft
800 to 1500m
200 to 500 ft
< 800m
< 200 ft
Symbols :   Thunderstorms  Fog  Heavy snow  Heavy precipitations  Wind > 20 kt







- Airport Elevation : 262 ft
- IATA code : LIT


KLIT - Adams Field

CURRENT METAR :
  • 201953Z 16007KT 10SM SCT048 BKN055 OVC110 24/23 A3010 RMK AO2 RAB16E43 SLP193 P0000 T02440228

EXPIRED METARs :
  • 201853Z 16004KT 10SM SCT035 BKN075 OVC100 26/23 A3010 RMK AO2 SLP193 RAB12E21B38 P0014 T02560228 $
  • 201840Z 22007KT 10SM -RA FEW024 SCT035 OVC075 26/23 A3010 RMK AO2 LTG DSNT E RAB12E21 P0014 T02560228
  • 201821Z 23006KT 10SM SCT024 BKN038 OVC150 26/23 A3010 RMK AO2 RAB12E21 P0014 T02560228
  • 201808Z 22006KT 10SM FEW022 BKN034TCU BKN150 27/22 A3011 RMK AO2 LTG DSNT SE TCU S T02670222
  • 201753Z 25007KT 10SM SCT022 BKN033 BKN150 27/22 A3011 RMK AO2 SLP195 T02670222 10267 20217 58002
  • 201740Z 24006KT 10SM SCT022 SCT031 BKN150 27/23 A3011 RMK AO2 T02670228

TAF KLIT
Valid from the 20 at 18:00 until the 21 at 18:00 UTC


201739Z 2018/2118 19005KT P6SM SCT012 OVC060
TEMPO 2018/2022 5SM SHRA BR SCT015 OVC025
FM202200 17008KT 6SM -SHRA OVC040
FM210600 14003KT P6SM OVC100
FM211500 17008KT P6SM OVC150
No reported NOTAMs for that airfield.



MET'MAP, your aeronautical weather chart ! - Copyright ORBIFLY December 2007 - Disclaimer

ORBIFLY MET'MAP TEAM :

Programming & Development : Alexandra Zaïnal
Concept & Development : Baudouin d'Aumeries
Co-Development & Prog : Marc-Olivier Méhu
Technical & hardware support : Manuel Goepfert

Contact : metmap@orbifly.com




SOURCES & CREDITS :

   NOAA       Earth
Advisory